sensor_id;sensor_type;location;lat;lon;timestamp;P1;durP1;ratioP1;P2;durP2;ratioP2
54428;SDS011;40337;52.978;6.310;2023-03-12T00:00:32;6.40;;;4.55;;
54428;SDS011;40337;52.978;6.310;2023-03-12T00:02:57;7.32;;;4.80;;
54428;SDS011;40337;52.978;6.310;2023-03-12T00:05:23;9.00;;;4.60;;
54428;SDS011;40337;52.978;6.310;2023-03-12T00:07:50;6.82;;;4.55;;
54428;SDS011;40337;52.978;6.310;2023-03-12T00:10:16;7.80;;;4.68;;
54428;SDS011;40337;52.978;6.310;2023-03-12T00:12:42;7.18;;;4.30;;
54428;SDS011;40337;52.978;6.310;2023-03-12T00:15:07;7.22;;;4.70;;
54428;SDS011;40337;52.978;6.310;2023-03-12T00:17:34;6.85;;;4.75;;
54428;SDS011;40337;52.978;6.310;2023-03-12T00:19:59;7.65;;;4.95;;
54428;SDS011;40337;52.978;6.310;2023-03-12T00:22:25;7.65;;;4.47;;
54428;SDS011;40337;52.978;6.310;2023-03-12T00:24:51;8.90;;;5.20;;
54428;SDS011;40337;52.978;6.310;2023-03-12T00:27:17;8.10;;;5.07;;
54428;SDS011;40337;52.978;6.310;2023-03-12T00:29:43;8.13;;;4.93;;
54428;SDS011;40337;52.978;6.310;2023-03-12T00:32:09;9.63;;;5.00;;
54428;SDS011;40337;52.978;6.310;2023-03-12T00:34:34;5.65;;;3.97;;
54428;SDS011;40337;52.978;6.310;2023-03-12T00:37:00;7.10;;;4.90;;
54428;SDS011;40337;52.978;6.310;2023-03-12T00:39:26;6.15;;;4.63;;
54428;SDS011;40337;52.978;6.310;2023-03-12T00:41:51;7.45;;;4.93;;
54428;SDS011;40337;52.978;6.310;2023-03-12T00:44:17;8.20;;;5.18;;
54428;SDS011;40337;52.978;6.310;2023-03-12T00:46:43;8.23;;;5.10;;
54428;SDS011;40337;52.978;6.310;2023-03-12T00:49:08;8.07;;;5.13;;
54428;SDS011;40337;52.978;6.310;2023-03-12T00:51:35;7.70;;;5.57;;
54428;SDS011;40337;52.978;6.310;2023-03-12T00:54:01;8.77;;;5.10;;
54428;SDS011;40337;52.978;6.310;2023-03-12T00:56:27;7.88;;;5.18;;
54428;SDS011;40337;52.978;6.310;2023-03-12T00:58:53;8.68;;;5.13;;
54428;SDS011;40337;52.978;6.310;2023-03-12T01:01:18;8.65;;;5.05;;
54428;SDS011;40337;52.978;6.310;2023-03-12T01:03:44;8.00;;;5.40;;
54428;SDS011;40337;52.978;6.310;2023-03-12T01:06:10;7.53;;;4.75;;
54428;SDS011;40337;52.978;6.310;2023-03-12T01:08:36;8.38;;;4.85;;
54428;SDS011;40337;52.978;6.310;2023-03-12T01:11:02;9.27;;;5.35;;
54428;SDS011;40337;52.978;6.310;2023-03-12T01:13:27;7.18;;;5.22;;
54428;SDS011;40337;52.978;6.310;2023-03-12T01:15:53;9.55;;;5.00;;
54428;SDS011;40337;52.978;6.310;2023-03-12T01:18:19;8.02;;;4.82;;
54428;SDS011;40337;52.978;6.310;2023-03-12T01:20:44;7.07;;;4.60;;
54428;SDS011;40337;52.978;6.310;2023-03-12T01:23:11;6.65;;;4.72;;
54428;SDS011;40337;52.978;6.310;2023-03-12T01:25:36;7.35;;;4.25;;
54428;SDS011;40337;52.978;6.310;2023-03-12T01:28:02;8.55;;;4.40;;
54428;SDS011;40337;52.978;6.310;2023-03-12T01:30:28;6.75;;;4.68;;
54428;SDS011;40337;52.978;6.310;2023-03-12T01:32:54;7.68;;;4.60;;
54428;SDS011;40337;52.978;6.310;2023-03-12T01:35:19;7.25;;;4.47;;
54428;SDS011;40337;52.978;6.310;2023-03-12T01:37:45;7.75;;;4.70;;
54428;SDS011;40337;52.978;6.310;2023-03-12T01:40:15;8.82;;;4.90;;
54428;SDS011;40337;52.978;6.310;2023-03-12T01:42:42;6.63;;;4.07;;
54428;SDS011;40337;52.978;6.310;2023-03-12T01:48:10;7.07;;;4.30;;
54428;SDS011;40337;52.978;6.310;2023-03-12T01:50:36;5.88;;;4.13;;
54428;SDS011;40337;52.978;6.310;2023-03-12T01:53:02;7.07;;;4.57;;
54428;SDS011;40337;52.978;6.310;2023-03-12T01:55:28;6.53;;;4.38;;
54428;SDS011;40337;52.978;6.310;2023-03-12T01:57:55;6.65;;;3.95;;
54428;SDS011;40337;52.978;6.310;2023-03-12T02:00:23;6.68;;;4.45;;
54428;SDS011;40337;52.978;6.310;2023-03-12T02:02:50;6.43;;;4.20;;
54428;SDS011;40337;52.978;6.310;2023-03-12T02:08:04;6.43;;;4.88;;
54428;SDS011;40337;52.978;6.310;2023-03-12T02:10:30;8.18;;;4.60;;
54428;SDS011;40337;52.978;6.310;2023-03-12T02:12:56;7.50;;;4.97;;
54428;SDS011;40337;52.978;6.310;2023-03-12T02:15:22;9.35;;;5.10;;
54428;SDS011;40337;52.978;6.310;2023-03-12T02:17:48;8.88;;;4.80;;
54428;SDS011;40337;52.978;6.310;2023-03-12T02:20:21;8.85;;;4.97;;
54428;SDS011;40337;52.978;6.310;2023-03-12T02:23:14;7.55;;;4.68;;
54428;SDS011;40337;52.978;6.310;2023-03-12T02:25:53;7.43;;;4.75;;
54428;SDS011;40337;52.978;6.310;2023-03-12T02:28:20;9.63;;;4.78;;
54428;SDS011;40337;52.978;6.310;2023-03-12T02:30:49;7.30;;;4.95;;
54428;SDS011;40337;52.978;6.310;2023-03-12T02:33:16;6.82;;;4.70;;
54428;SDS011;40337;52.978;6.310;2023-03-12T02:35:43;7.43;;;4.50;;
54428;SDS011;40337;52.978;6.310;2023-03-12T02:38:28;8.10;;;4.63;;
54428;SDS011;40337;52.978;6.310;2023-03-12T02:40:55;7.43;;;4.60;;
54428;SDS011;40337;52.978;6.310;2023-03-12T02:43:24;9.57;;;5.00;;
54428;SDS011;40337;52.978;6.310;2023-03-12T02:45:50;7.18;;;4.20;;
54428;SDS011;40337;52.978;6.310;2023-03-12T02:48:15;7.15;;;3.83;;
54428;SDS011;40337;52.978;6.310;2023-03-12T02:50:41;7.20;;;4.25;;
54428;SDS011;40337;52.978;6.310;2023-03-12T02:53:07;6.63;;;4.47;;
54428;SDS011;40337;52.978;6.310;2023-03-12T02:55:32;6.30;;;4.15;;
54428;SDS011;40337;52.978;6.310;2023-03-12T02:57:58;8.15;;;4.25;;
54428;SDS011;40337;52.978;6.310;2023-03-12T03:00:23;7.97;;;4.45;;
54428;SDS011;40337;52.978;6.310;2023-03-12T03:02:49;8.25;;;4.90;;
54428;SDS011;40337;52.978;6.310;2023-03-12T03:05:14;6.25;;;4.57;;
54428;SDS011;40337;52.978;6.310;2023-03-12T03:07:40;7.57;;;4.70;;
54428;SDS011;40337;52.978;6.310;2023-03-12T03:10:06;7.07;;;4.90;;
54428;SDS011;40337;52.978;6.310;2023-03-12T03:12:33;6.78;;;4.60;;
54428;SDS011;40337;52.978;6.310;2023-03-12T03:15:00;6.70;;;4.55;;
54428;SDS011;40337;52.978;6.310;2023-03-12T03:17:26;7.43;;;4.43;;
54428;SDS011;40337;52.978;6.310;2023-03-12T03:19:52;7.25;;;4.65;;
54428;SDS011;40337;52.978;6.310;2023-03-12T03:22:18;6.95;;;4.40;;
54428;SDS011;40337;52.978;6.310;2023-03-12T03:24:44;6.43;;;4.60;;
54428;SDS011;40337;52.978;6.310;2023-03-12T03:27:10;6.53;;;5.20;;
54428;SDS011;40337;52.978;6.310;2023-03-12T03:29:36;9.80;;;5.82;;
54428;SDS011;40337;52.978;6.310;2023-03-12T03:32:02;8.15;;;5.28;;
54428;SDS011;40337;52.978;6.310;2023-03-12T03:34:28;8.05;;;5.25;;
54428;SDS011;40337;52.978;6.310;2023-03-12T03:36:54;7.53;;;5.55;;
54428;SDS011;40337;52.978;6.310;2023-03-12T03:39:19;7.20;;;5.05;;
54428;SDS011;40337;52.978;6.310;2023-03-12T03:41:45;8.77;;;5.28;;
54428;SDS011;40337;52.978;6.310;2023-03-12T03:44:11;8.23;;;5.53;;
54428;SDS011;40337;52.978;6.310;2023-03-12T03:46:38;8.73;;;5.80;;
54428;SDS011;40337;52.978;6.310;2023-03-12T03:49:04;8.82;;;5.22;;
54428;SDS011;40337;52.978;6.310;2023-03-12T03:51:30;8.80;;;5.72;;
54428;SDS011;40337;52.978;6.310;2023-03-12T03:53:57;8.00;;;5.40;;
54428;SDS011;40337;52.978;6.310;2023-03-12T03:56:24;8.15;;;5.88;;
54428;SDS011;40337;52.978;6.310;2023-03-12T03:58:50;9.35;;;5.43;;
54428;SDS011;40337;52.978;6.310;2023-03-12T04:01:16;8.77;;;5.50;;
54428;SDS011;40337;52.978;6.310;2023-03-12T04:03:42;8.00;;;5.43;;
54428;SDS011;40337;52.978;6.310;2023-03-12T04:06:08;7.43;;;5.38;;
54428;SDS011;40337;52.978;6.310;2023-03-12T04:08:34;10.00;;;5.85;;
54428;SDS011;40337;52.978;6.310;2023-03-12T04:11:08;9.25;;;5.90;;
54428;SDS011;40337;52.978;6.310;2023-03-12T04:13:35;8.05;;;5.70;;
54428;SDS011;40337;52.978;6.310;2023-03-12T04:16:01;7.65;;;5.68;;
54428;SDS011;40337;52.978;6.310;2023-03-12T04:18:26;8.00;;;5.63;;
54428;SDS011;40337;52.978;6.310;2023-03-12T04:20:52;8.57;;;6.00;;
54428;SDS011;40337;52.978;6.310;2023-03-12T04:23:17;8.40;;;5.72;;
54428;SDS011;40337;52.978;6.310;2023-03-12T04:25:43;7.15;;;5.80;;
54428;SDS011;40337;52.978;6.310;2023-03-12T04:28:08;9.95;;;5.95;;
54428;SDS011;40337;52.978;6.310;2023-03-12T04:30:34;9.77;;;5.68;;
54428;SDS011;40337;52.978;6.310;2023-03-12T04:33:02;8.88;;;6.00;;
54428;SDS011;40337;52.978;6.310;2023-03-12T04:35:28;8.23;;;5.30;;
54428;SDS011;40337;52.978;6.310;2023-03-12T04:37:54;8.63;;;6.15;;
54428;SDS011;40337;52.978;6.310;2023-03-12T04:40:19;9.00;;;6.00;;
54428;SDS011;40337;52.978;6.310;2023-03-12T04:42:45;9.23;;;6.07;;
54428;SDS011;40337;52.978;6.310;2023-03-12T04:45:11;8.40;;;5.63;;
54428;SDS011;40337;52.978;6.310;2023-03-12T04:47:37;7.80;;;6.25;;
54428;SDS011;40337;52.978;6.310;2023-03-12T04:50:03;7.95;;;5.70;;
54428;SDS011;40337;52.978;6.310;2023-03-12T04:52:29;9.15;;;5.63;;
54428;SDS011;40337;52.978;6.310;2023-03-12T04:54:54;8.05;;;5.95;;
54428;SDS011;40337;52.978;6.310;2023-03-12T04:57:20;8.45;;;6.05;;
54428;SDS011;40337;52.978;6.310;2023-03-12T04:59:46;8.18;;;5.72;;
54428;SDS011;40337;52.978;6.310;2023-03-12T05:02:11;7.70;;;6.03;;
54428;SDS011;40337;52.978;6.310;2023-03-12T05:04:37;9.57;;;6.10;;
54428;SDS011;40337;52.978;6.310;2023-03-12T05:07:03;7.85;;;5.50;;
54428;SDS011;40337;52.978;6.310;2023-03-12T05:09:28;9.15;;;6.53;;
54428;SDS011;40337;52.978;6.310;2023-03-12T05:11:54;10.75;;;6.32;;
54428;SDS011;40337;52.978;6.310;2023-03-12T05:14:20;9.05;;;6.20;;
54428;SDS011;40337;52.978;6.310;2023-03-12T05:16:45;8.57;;;5.82;;
54428;SDS011;40337;52.978;6.310;2023-03-12T05:19:11;8.75;;;6.63;;
54428;SDS011;40337;52.978;6.310;2023-03-12T05:21:38;9.90;;;6.38;;
54428;SDS011;40337;52.978;6.310;2023-03-12T05:24:04;8.63;;;6.05;;
54428;SDS011;40337;52.978;6.310;2023-03-12T05:26:30;11.30;;;6.03;;
54428;SDS011;40337;52.978;6.310;2023-03-12T05:28:57;10.02;;;6.20;;
54428;SDS011;40337;52.978;6.310;2023-03-12T05:31:24;9.32;;;6.25;;
54428;SDS011;40337;52.978;6.310;2023-03-12T05:33:50;7.85;;;5.72;;
54428;SDS011;40337;52.978;6.310;2023-03-12T05:36:15;10.85;;;6.15;;
54428;SDS011;40337;52.978;6.310;2023-03-12T05:38:41;8.50;;;5.82;;
54428;SDS011;40337;52.978;6.310;2023-03-12T05:41:09;8.63;;;6.32;;
54428;SDS011;40337;52.978;6.310;2023-03-12T05:43:41;9.23;;;5.93;;
54428;SDS011;40337;52.978;6.310;2023-03-12T05:46:08;7.95;;;6.22;;
54428;SDS011;40337;52.978;6.310;2023-03-12T05:48:34;9.77;;;6.53;;
54428;SDS011;40337;52.978;6.310;2023-03-12T05:51:00;9.18;;;6.15;;
54428;SDS011;40337;52.978;6.310;2023-03-12T05:53:25;10.00;;;6.07;;
54428;SDS011;40337;52.978;6.310;2023-03-12T05:55:51;9.77;;;6.22;;
54428;SDS011;40337;52.978;6.310;2023-03-12T05:58:17;8.50;;;6.35;;
54428;SDS011;40337;52.978;6.310;2023-03-12T06:00:43;9.15;;;6.25;;
54428;SDS011;40337;52.978;6.310;2023-03-12T06:03:09;7.70;;;6.18;;
54428;SDS011;40337;52.978;6.310;2023-03-12T06:05:35;7.97;;;5.93;;
54428;SDS011;40337;52.978;6.310;2023-03-12T06:08:01;10.52;;;6.78;;
54428;SDS011;40337;52.978;6.310;2023-03-12T06:10:28;10.25;;;6.85;;
54428;SDS011;40337;52.978;6.310;2023-03-12T06:12:54;8.35;;;6.28;;
54428;SDS011;40337;52.978;6.310;2023-03-12T06:15:20;8.90;;;6.55;;
54428;SDS011;40337;52.978;6.310;2023-03-12T06:17:45;8.70;;;6.88;;
54428;SDS011;40337;52.978;6.310;2023-03-12T06:20:11;8.73;;;7.00;;
54428;SDS011;40337;52.978;6.310;2023-03-12T06:22:37;11.15;;;7.28;;
54428;SDS011;40337;52.978;6.310;2023-03-12T06:25:02;9.50;;;6.80;;
54428;SDS011;40337;52.978;6.310;2023-03-12T06:27:28;9.10;;;6.55;;
54428;SDS011;40337;52.978;6.310;2023-03-12T06:29:54;9.93;;;6.80;;
54428;SDS011;40337;52.978;6.310;2023-03-12T06:32:19;10.07;;;6.38;;
54428;SDS011;40337;52.978;6.310;2023-03-12T06:34:45;11.75;;;7.25;;
54428;SDS011;40337;52.978;6.310;2023-03-12T06:37:10;11.57;;;6.88;;
54428;SDS011;40337;52.978;6.310;2023-03-12T06:39:36;9.68;;;6.35;;
54428;SDS011;40337;52.978;6.310;2023-03-12T06:42:02;10.95;;;6.93;;
54428;SDS011;40337;52.978;6.310;2023-03-12T06:44:29;12.23;;;6.60;;
54428;SDS011;40337;52.978;6.310;2023-03-12T06:46:55;11.52;;;7.10;;
54428;SDS011;40337;52.978;6.310;2023-03-12T06:49:21;10.95;;;7.15;;
54428;SDS011;40337;52.978;6.310;2023-03-12T06:51:47;10.50;;;7.30;;
54428;SDS011;40337;52.978;6.310;2023-03-12T06:54:13;9.85;;;7.50;;
54428;SDS011;40337;52.978;6.310;2023-03-12T06:56:38;11.38;;;7.60;;
54428;SDS011;40337;52.978;6.310;2023-03-12T06:59:04;9.95;;;7.13;;
54428;SDS011;40337;52.978;6.310;2023-03-12T07:01:30;12.00;;;7.90;;
54428;SDS011;40337;52.978;6.310;2023-03-12T07:03:56;11.82;;;7.65;;
54428;SDS011;40337;52.978;6.310;2023-03-12T07:06:22;12.43;;;8.38;;
54428;SDS011;40337;52.978;6.310;2023-03-12T07:08:48;10.77;;;8.25;;
54428;SDS011;40337;52.978;6.310;2023-03-12T07:11:14;10.57;;;8.30;;
54428;SDS011;40337;52.978;6.310;2023-03-12T07:13:41;11.73;;;8.00;;
54428;SDS011;40337;52.978;6.310;2023-03-12T07:16:07;12.15;;;8.60;;
54428;SDS011;40337;52.978;6.310;2023-03-12T07:18:33;10.95;;;8.43;;
54428;SDS011;40337;52.978;6.310;2023-03-12T07:20:59;15.25;;;9.68;;
54428;SDS011;40337;52.978;6.310;2023-03-12T07:23:25;13.63;;;9.68;;
54428;SDS011;40337;52.978;6.310;2023-03-12T07:25:51;11.95;;;9.38;;
54428;SDS011;40337;52.978;6.310;2023-03-12T07:28:17;16.35;;;9.88;;
54428;SDS011;40337;52.978;6.310;2023-03-12T07:30:43;13.02;;;9.63;;
54428;SDS011;40337;52.978;6.310;2023-03-12T07:33:14;13.57;;;10.02;;
54428;SDS011;40337;52.978;6.310;2023-03-12T07:35:41;11.68;;;9.85;;
54428;SDS011;40337;52.978;6.310;2023-03-12T07:38:07;11.30;;;9.70;;
54428;SDS011;40337;52.978;6.310;2023-03-12T07:40:33;11.73;;;9.82;;
54428;SDS011;40337;52.978;6.310;2023-03-12T07:43:00;14.15;;;10.45;;
54428;SDS011;40337;52.978;6.310;2023-03-12T07:45:27;13.60;;;10.98;;
54428;SDS011;40337;52.978;6.310;2023-03-12T07:47:52;14.07;;;10.68;;
54428;SDS011;40337;52.978;6.310;2023-03-12T07:50:18;14.82;;;10.93;;
54428;SDS011;40337;52.978;6.310;2023-03-12T07:52:44;13.88;;;10.50;;
54428;SDS011;40337;52.978;6.310;2023-03-12T07:55:10;14.77;;;10.50;;
54428;SDS011;40337;52.978;6.310;2023-03-12T07:57:36;14.32;;;11.57;;
54428;SDS011;40337;52.978;6.310;2023-03-12T08:00:03;14.00;;;10.95;;
54428;SDS011;40337;52.978;6.310;2023-03-12T08:02:31;16.30;;;12.05;;
54428;SDS011;40337;52.978;6.310;2023-03-12T08:04:58;16.30;;;12.30;;
54428;SDS011;40337;52.978;6.310;2023-03-12T08:07:23;15.15;;;11.13;;
54428;SDS011;40337;52.978;6.310;2023-03-12T08:09:49;13.07;;;11.60;;
54428;SDS011;40337;52.978;6.310;2023-03-12T08:12:14;14.48;;;12.55;;
54428;SDS011;40337;52.978;6.310;2023-03-12T08:14:40;12.48;;;10.32;;
54428;SDS011;40337;52.978;6.310;2023-03-12T08:17:06;16.67;;;11.43;;
54428;SDS011;40337;52.978;6.310;2023-03-12T08:19:31;14.32;;;11.13;;
54428;SDS011;40337;52.978;6.310;2023-03-12T08:21:57;15.00;;;10.73;;
54428;SDS011;40337;52.978;6.310;2023-03-12T08:24:23;15.15;;;12.13;;
54428;SDS011;40337;52.978;6.310;2023-03-12T08:26:48;14.50;;;10.98;;
54428;SDS011;40337;52.978;6.310;2023-03-12T08:29:14;13.00;;;10.02;;
54428;SDS011;40337;52.978;6.310;2023-03-12T08:31:40;14.48;;;10.05;;
54428;SDS011;40337;52.978;6.310;2023-03-12T08:34:06;13.35;;;10.82;;
54428;SDS011;40337;52.978;6.310;2023-03-12T08:36:32;15.75;;;10.60;;
54428;SDS011;40337;52.978;6.310;2023-03-12T08:38:58;11.13;;;9.85;;
54428;SDS011;40337;52.978;6.310;2023-03-12T08:41:23;16.75;;;11.45;;
54428;SDS011;40337;52.978;6.310;2023-03-12T08:43:49;12.50;;;10.18;;
54428;SDS011;40337;52.978;6.310;2023-03-12T08:46:14;14.23;;;10.68;;
54428;SDS011;40337;52.978;6.310;2023-03-12T08:48:40;13.32;;;10.70;;
54428;SDS011;40337;52.978;6.310;2023-03-12T08:51:06;15.52;;;11.52;;
54428;SDS011;40337;52.978;6.310;2023-03-12T08:53:32;11.93;;;10.27;;
54428;SDS011;40337;52.978;6.310;2023-03-12T08:55:59;12.18;;;9.82;;
54428;SDS011;40337;52.978;6.310;2023-03-12T08:58:27;11.80;;;10.32;;
54428;SDS011;40337;52.978;6.310;2023-03-12T09:00:53;12.05;;;10.05;;
54428;SDS011;40337;52.978;6.310;2023-03-12T09:03:20;10.73;;;9.60;;
54428;SDS011;40337;52.978;6.310;2023-03-12T09:05:46;12.45;;;9.82;;
54428;SDS011;40337;52.978;6.310;2023-03-12T09:08:13;11.90;;;10.27;;
54428;SDS011;40337;52.978;6.310;2023-03-12T09:10:39;11.20;;;10.10;;
54428;SDS011;40337;52.978;6.310;2023-03-12T09:13:10;12.88;;;10.52;;
54428;SDS011;40337;52.978;6.310;2023-03-12T09:15:36;12.18;;;10.63;;
54428;SDS011;40337;52.978;6.310;2023-03-12T09:18:02;11.27;;;10.07;;
54428;SDS011;40337;52.978;6.310;2023-03-12T09:20:27;11.27;;;9.75;;
54428;SDS011;40337;52.978;6.310;2023-03-12T09:22:53;11.77;;;10.43;;
54428;SDS011;40337;52.978;6.310;2023-03-12T09:25:18;11.38;;;10.20;;
54428;SDS011;40337;52.978;6.310;2023-03-12T09:27:46;12.60;;;11.25;;
54428;SDS011;40337;52.978;6.310;2023-03-12T09:30:12;11.45;;;10.07;;
54428;SDS011;40337;52.978;6.310;2023-03-12T09:32:40;11.40;;;10.15;;
54428;SDS011;40337;52.978;6.310;2023-03-12T09:35:06;13.02;;;10.43;;
54428;SDS011;40337;52.978;6.310;2023-03-12T09:37:32;11.32;;;10.10;;
54428;SDS011;40337;52.978;6.310;2023-03-12T09:39:58;11.60;;;10.23;;
54428;SDS011;40337;52.978;6.310;2023-03-12T09:42:26;12.18;;;10.52;;
54428;SDS011;40337;52.978;6.310;2023-03-12T09:44:59;13.18;;;10.55;;
54428;SDS011;40337;52.978;6.310;2023-03-12T09:47:30;12.68;;;11.20;;
54428;SDS011;40337;52.978;6.310;2023-03-12T09:50:02;14.25;;;10.90;;
54428;SDS011;40337;52.978;6.310;2023-03-12T09:52:38;12.23;;;10.93;;
54428;SDS011;40337;52.978;6.310;2023-03-12T09:55:12;12.38;;;10.95;;
54428;SDS011;40337;52.978;6.310;2023-03-12T09:57:40;16.02;;;11.75;;
54428;SDS011;40337;52.978;6.310;2023-03-12T10:00:10;12.93;;;11.40;;
54428;SDS011;40337;52.978;6.310;2023-03-12T10:02:48;13.02;;;11.57;;
54428;SDS011;40337;52.978;6.310;2023-03-12T10:05:25;12.77;;;11.43;;
54428;SDS011;40337;52.978;6.310;2023-03-12T10:10:53;13.88;;;12.07;;
54428;SDS011;40337;52.978;6.310;2023-03-12T10:18:54;13.30;;;11.90;;
54428;SDS011;40337;52.978;6.310;2023-03-12T10:21:53;14.95;;;12.60;;
54428;SDS011;40337;52.978;6.310;2023-03-12T10:24:39;14.02;;;12.60;;
54428;SDS011;40337;52.978;6.310;2023-03-12T10:27:27;14.05;;;12.57;;
54428;SDS011;40337;52.978;6.310;2023-03-12T10:29:54;14.23;;;12.85;;
54428;SDS011;40337;52.978;6.310;2023-03-12T10:34:50;14.57;;;13.18;;
54428;SDS011;40337;52.978;6.310;2023-03-12T10:39:54;15.73;;;14.13;;
54428;SDS011;40337;52.978;6.310;2023-03-12T10:42:21;16.63;;;14.93;;
54428;SDS011;40337;52.978;6.310;2023-03-12T10:44:57;17.10;;;15.18;;
54428;SDS011;40337;52.978;6.310;2023-03-12T10:47:43;18.35;;;16.45;;
54428;SDS011;40337;52.978;6.310;2023-03-12T10:52:46;19.55;;;16.70;;
54428;SDS011;40337;52.978;6.310;2023-03-12T10:57:51;19.35;;;16.77;;
54428;SDS011;40337;52.978;6.310;2023-03-12T11:00:27;20.70;;;17.85;;
54428;SDS011;40337;52.978;6.310;2023-03-12T11:03:05;22.23;;;17.95;;
54428;SDS011;40337;52.978;6.310;2023-03-12T11:05:45;20.15;;;17.95;;
54428;SDS011;40337;52.978;6.310;2023-03-12T11:08:20;22.02;;;18.50;;
54428;SDS011;40337;52.978;6.310;2023-03-12T11:10:48;22.48;;;19.75;;
54428;SDS011;40337;52.978;6.310;2023-03-12T11:13:22;23.80;;;19.70;;
54428;SDS011;40337;52.978;6.310;2023-03-12T11:15:50;26.35;;;20.42;;
54428;SDS011;40337;52.978;6.310;2023-03-12T11:20:44;26.70;;;21.23;;
54428;SDS011;40337;52.978;6.310;2023-03-12T11:23:15;26.73;;;21.80;;
54428;SDS011;40337;52.978;6.310;2023-03-12T11:25:49;26.20;;;21.50;;
54428;SDS011;40337;52.978;6.310;2023-03-12T11:28:20;26.58;;;21.25;;
54428;SDS011;40337;52.978;6.310;2023-03-12T11:30:48;26.02;;;21.65;;
54428;SDS011;40337;52.978;6.310;2023-03-12T11:33:15;27.05;;;22.35;;
54428;SDS011;40337;52.978;6.310;2023-03-12T11:38:56;28.83;;;23.48;;
54428;SDS011;40337;52.978;6.310;2023-03-12T11:44:25;27.58;;;23.23;;
54428;SDS011;40337;52.978;6.310;2023-03-12T11:53:08;23.45;;;20.40;;
54428;SDS011;40337;52.978;6.310;2023-03-12T11:56:35;24.20;;;20.73;;
54428;SDS011;40337;52.978;6.310;2023-03-12T12:03:51;27.67;;;21.02;;
54428;SDS011;40337;52.978;6.310;2023-03-12T12:14:42;26.10;;;21.55;;
54428;SDS011;40337;52.978;6.310;2023-03-12T12:17:43;28.02;;;23.00;;
54428;SDS011;40337;52.978;6.310;2023-03-12T12:20:25;30.60;;;23.77;;
54428;SDS011;40337;52.978;6.310;2023-03-12T12:23:08;30.00;;;24.00;;
54428;SDS011;40337;52.978;6.310;2023-03-12T12:25:45;32.47;;;24.33;;
54428;SDS011;40337;52.978;6.310;2023-03-12T12:31:06;31.38;;;24.45;;
54428;SDS011;40337;52.978;6.310;2023-03-12T12:34:07;33.42;;;24.48;;
54428;SDS011;40337;52.978;6.310;2023-03-12T12:36:55;32.30;;;23.50;;
54428;SDS011;40337;52.978;6.310;2023-03-12T12:39:53;33.90;;;24.63;;
54428;SDS011;40337;52.978;6.310;2023-03-12T12:42:23;34.72;;;24.85;;
54428;SDS011;40337;52.978;6.310;2023-03-12T12:44:52;32.92;;;23.48;;
54428;SDS011;40337;52.978;6.310;2023-03-12T12:47:27;33.08;;;23.83;;
54428;SDS011;40337;52.978;6.310;2023-03-12T12:50:00;32.90;;;23.00;;
54428;SDS011;40337;52.978;6.310;2023-03-12T12:52:27;32.85;;;22.38;;
54428;SDS011;40337;52.978;6.310;2023-03-12T12:57:44;29.05;;;20.70;;
54428;SDS011;40337;52.978;6.310;2023-03-12T13:03:03;32.63;;;19.80;;
54428;SDS011;40337;52.978;6.310;2023-03-12T13:08:00;23.58;;;15.80;;
54428;SDS011;40337;52.978;6.310;2023-03-12T13:12:56;25.58;;;13.10;;
54428;SDS011;40337;52.978;6.310;2023-03-12T13:20:21;22.55;;;12.73;;
54428;SDS011;40337;52.978;6.310;2023-03-12T13:26:26;29.88;;;12.38;;
54428;SDS011;40337;52.978;6.310;2023-03-12T13:33:52;28.95;;;13.05;;
54428;SDS011;40337;52.978;6.310;2023-03-12T13:36:23;29.63;;;13.88;;
54428;SDS011;40337;52.978;6.310;2023-03-12T13:38:56;33.35;;;13.70;;
54428;SDS011;40337;52.978;6.310;2023-03-12T13:46:47;40.88;;;15.15;;
54428;SDS011;40337;52.978;6.310;2023-03-12T13:49:22;33.05;;;14.77;;
54428;SDS011;40337;52.978;6.310;2023-03-12T13:51:57;31.83;;;13.85;;
54428;SDS011;40337;52.978;6.310;2023-03-12T13:54:26;34.72;;;14.25;;
54428;SDS011;40337;52.978;6.310;2023-03-12T13:56:56;33.38;;;14.07;;
54428;SDS011;40337;52.978;6.310;2023-03-12T13:59:24;34.50;;;13.13;;
54428;SDS011;40337;52.978;6.310;2023-03-12T14:01:53;34.60;;;14.35;;
54428;SDS011;40337;52.978;6.310;2023-03-12T14:04:32;33.83;;;12.27;;
54428;SDS011;40337;52.978;6.310;2023-03-12T14:07:07;30.13;;;11.65;;
54428;SDS011;40337;52.978;6.310;2023-03-12T14:09:48;33.50;;;11.75;;
54428;SDS011;40337;52.978;6.310;2023-03-12T14:12:30;29.65;;;10.25;;
54428;SDS011;40337;52.978;6.310;2023-03-12T14:15:13;33.03;;;10.63;;
54428;SDS011;40337;52.978;6.310;2023-03-12T14:17:53;35.45;;;10.82;;
54428;SDS011;40337;52.978;6.310;2023-03-12T14:20:22;32.75;;;10.30;;
54428;SDS011;40337;52.978;6.310;2023-03-12T14:22:49;33.28;;;11.80;;
54428;SDS011;40337;52.978;6.310;2023-03-12T14:28:03;37.13;;;12.35;;
54428;SDS011;40337;52.978;6.310;2023-03-12T14:30:47;34.53;;;12.43;;
54428;SDS011;40337;52.978;6.310;2023-03-12T14:33:23;35.28;;;11.50;;
54428;SDS011;40337;52.978;6.310;2023-03-12T14:36:05;35.65;;;11.07;;
54428;SDS011;40337;52.978;6.310;2023-03-12T14:38:36;30.67;;;10.53;;
54428;SDS011;40337;52.978;6.310;2023-03-12T14:41:12;32.25;;;11.00;;
54428;SDS011;40337;52.978;6.310;2023-03-12T14:43:43;34.70;;;11.10;;
54428;SDS011;40337;52.978;6.310;2023-03-12T14:46:28;32.42;;;10.25;;
54428;SDS011;40337;52.978;6.310;2023-03-12T14:48:54;31.25;;;10.30;;
54428;SDS011;40337;52.978;6.310;2023-03-12T14:53:47;27.90;;;9.40;;
54428;SDS011;40337;52.978;6.310;2023-03-12T14:56:14;34.63;;;9.43;;
54428;SDS011;40337;52.978;6.310;2023-03-12T14:58:53;34.38;;;9.93;;
54428;SDS011;40337;52.978;6.310;2023-03-12T15:01:20;29.92;;;8.50;;
54428;SDS011;40337;52.978;6.310;2023-03-12T15:03:50;31.33;;;8.93;;
54428;SDS011;40337;52.978;6.310;2023-03-12T15:06:21;32.13;;;8.90;;
54428;SDS011;40337;52.978;6.310;2023-03-12T15:08:49;30.95;;;8.85;;
54428;SDS011;40337;52.978;6.310;2023-03-12T15:11:18;33.38;;;8.75;;
54428;SDS011;40337;52.978;6.310;2023-03-12T15:13:46;35.72;;;9.98;;
54428;SDS011;40337;52.978;6.310;2023-03-12T15:16:12;37.55;;;10.10;;
54428;SDS011;40337;52.978;6.310;2023-03-12T15:18:38;34.08;;;9.55;;
54428;SDS011;40337;52.978;6.310;2023-03-12T15:21:04;34.65;;;8.98;;
54428;SDS011;40337;52.978;6.310;2023-03-12T15:23:31;34.60;;;9.15;;
54428;SDS011;40337;52.978;6.310;2023-03-12T15:28:53;38.80;;;10.13;;
54428;SDS011;40337;52.978;6.310;2023-03-12T15:31:43;29.45;;;8.48;;
54428;SDS011;40337;52.978;6.310;2023-03-12T15:34:11;38.33;;;9.75;;
54428;SDS011;40337;52.978;6.310;2023-03-12T15:36:44;36.70;;;8.98;;
54428;SDS011;40337;52.978;6.310;2023-03-12T15:42:00;28.65;;;7.97;;
54428;SDS011;40337;52.978;6.310;2023-03-12T15:44:43;34.85;;;9.13;;
54428;SDS011;40337;52.978;6.310;2023-03-12T15:47:19;34.00;;;9.57;;
54428;SDS011;40337;52.978;6.310;2023-03-12T15:49:52;34.72;;;9.13;;
54428;SDS011;40337;52.978;6.310;2023-03-12T15:57:52;35.53;;;8.98;;
54428;SDS011;40337;52.978;6.310;2023-03-12T16:00:26;39.33;;;9.30;;
54428;SDS011;40337;52.978;6.310;2023-03-12T16:05:24;35.75;;;9.05;;
54428;SDS011;40337;52.978;6.310;2023-03-12T16:08:00;32.70;;;9.60;;
54428;SDS011;40337;52.978;6.310;2023-03-12T16:10:36;37.55;;;8.85;;
54428;SDS011;40337;52.978;6.310;2023-03-12T16:13:03;37.42;;;8.82;;
54428;SDS011;40337;52.978;6.310;2023-03-12T16:15:30;36.45;;;9.75;;
54428;SDS011;40337;52.978;6.310;2023-03-12T16:17:57;29.63;;;8.68;;
54428;SDS011;40337;52.978;6.310;2023-03-12T16:20:23;37.22;;;9.07;;
54428;SDS011;40337;52.978;6.310;2023-03-12T16:22:48;35.22;;;9.35;;
54428;SDS011;40337;52.978;6.310;2023-03-12T16:25:14;32.55;;;8.75;;
54428;SDS011;40337;52.978;6.310;2023-03-12T16:27:50;31.88;;;8.23;;